createdAt,value
2018-12-04T00:00:15.716Z,8.53
2018-12-04T00:01:20.975Z,8.52
2018-12-04T00:02:26.290Z,8.49
2018-12-04T00:03:31.508Z,8.52
2018-12-04T00:04:36.242Z,8.47
2018-12-04T00:05:40.882Z,8.49
2018-12-04T00:06:45.594Z,8.49
2018-12-04T00:07:50.952Z,8.51
2018-12-04T00:08:55.841Z,8.54
2018-12-04T00:10:00.706Z,8.49
2018-12-04T00:11:06.138Z,8.44
2018-12-04T00:12:11.466Z,8.49
2018-12-04T00:13:16.432Z,8.52
2018-12-04T00:14:21.751Z,8.51
2018-12-04T00:15:27.186Z,8.51
2018-12-04T00:16:32.700Z,8.46
2018-12-04T00:17:37.495Z,8.46
2018-12-04T00:18:42.368Z,8.46
2018-12-04T00:19:47.349Z,8.46
2018-12-04T00:20:52.771Z,8.47
2018-12-04T00:21:57.455Z,8.44
2018-12-04T00:23:02.254Z,8.39
2018-12-04T00:24:07.478Z,8.40
2018-12-04T00:25:12.222Z,8.36
2018-12-04T00:26:17.255Z,8.29
2018-12-04T00:27:23.895Z,8.32
2018-12-04T00:28:29.280Z,8.22
2018-12-04T00:29:34.557Z,8.23
2018-12-04T00:30:39.604Z,8.22
2018-12-04T00:31:44.233Z,8.24
2018-12-04T00:32:49.174Z,8.24
2018-12-04T00:33:54.115Z,8.23
2018-12-04T00:34:59.015Z,8.20
2018-12-04T00:36:03.726Z,8.21
2018-12-04T00:37:08.400Z,8.18
2018-12-04T00:38:13.830Z,8.16
2018-12-04T00:39:18.993Z,8.12
2018-12-04T00:40:24.055Z,8.14
2018-12-04T00:41:29.158Z,8.17
2018-12-04T00:42:34.242Z,8.13
2018-12-04T00:43:39.061Z,8.13
2018-12-04T00:44:43.671Z,8.11
2018-12-04T00:45:48.342Z,8.11
2018-12-04T00:46:54.048Z,8.11
2018-12-04T00:47:59.065Z,8.14
2018-12-04T00:49:03.957Z,8.11
2018-12-04T00:50:09.016Z,8.13
2018-12-04T00:51:13.851Z,8.13
2018-12-04T00:52:19.134Z,8.12
2018-12-04T00:53:24.603Z,8.10
2018-12-04T00:54:29.397Z,8.10
2018-12-04T00:55:38.213Z,8.08
2018-12-04T00:56:42.844Z,8.07
2018-12-04T00:57:47.501Z,8.08
2018-12-04T00:58:52.592Z,8.09
2018-12-04T00:59:58.530Z,8.13
2018-12-04T01:01:03.613Z,8.09
2018-12-04T01:02:08.372Z,8.11
2018-12-04T01:03:12.985Z,8.11
2018-12-04T01:04:17.645Z,8.14
2018-12-04T01:05:23.153Z,8.14
2018-12-04T01:06:28.573Z,8.15
2018-12-04T01:07:33.261Z,8.13
2018-12-04T01:08:38.212Z,8.14
2018-12-04T01:09:43.274Z,8.08
2018-12-04T01:10:48.530Z,8.10
2018-12-04T01:11:53.693Z,8.09
2018-12-04T01:12:59.304Z,8.09
2018-12-04T01:14:05.117Z,8.10
2018-12-04T01:15:10.279Z,8.14
2018-12-04T01:16:15.378Z,8.13
2018-12-04T01:17:20.895Z,8.14
2018-12-04T01:18:26.130Z,8.09
2018-12-04T01:19:31.510Z,8.14
2018-12-04T01:20:36.607Z,8.13
2018-12-04T01:21:41.605Z,8.15
2018-12-04T01:22:46.615Z,8.15
2018-12-04T01:23:52.210Z,8.11
2018-12-04T01:24:57.604Z,8.06
2018-12-04T01:26:04.141Z,8.09
2018-12-04T01:27:08.886Z,8.06
2018-12-04T01:28:14.344Z,8.09
2018-12-04T01:29:19.850Z,8.12
2018-12-04T01:30:24.555Z,8.07
2018-12-04T01:31:29.200Z,8.08
2018-12-04T01:32:34.244Z,8.06
2018-12-04T01:33:38.965Z,8.10
2018-12-04T01:34:44.259Z,8.03
2018-12-04T01:35:48.887Z,8.03
2018-12-04T01:36:53.651Z,7.96
2018-12-04T01:37:59.624Z,7.93
2018-12-04T01:39:07.016Z,7.93
2018-12-04T01:40:11.878Z,7.96
2018-12-04T01:41:16.553Z,7.89
2018-12-04T01:42:21.547Z,7.81
2018-12-04T01:43:27.326Z,7.83
2018-12-04T01:44:33.867Z,7.78
2018-12-04T01:45:39.577Z,7.79
2018-12-04T01:46:46.573Z,7.78
2018-12-04T01:47:52.465Z,7.73
2018-12-04T01:49:02.152Z,7.74
2018-12-04T01:50:10.196Z,7.73
2018-12-04T01:51:16.191Z,7.72
2018-12-04T01:52:21.994Z,7.68
2018-12-04T01:53:29.918Z,7.63
2018-12-04T01:54:37.209Z,7.57
2018-12-04T01:55:41.830Z,7.49
2018-12-04T01:56:50.256Z,7.46
2018-12-04T01:57:55.318Z,7.49
2018-12-04T01:59:00.649Z,7.53
2018-12-04T02:00:05.392Z,7.46
2018-12-04T02:01:10.031Z,7.41
2018-12-04T02:02:15.236Z,7.35
2018-12-04T02:03:20.424Z,7.35
2018-12-04T02:04:25.860Z,7.42
2018-12-04T02:05:30.517Z,7.35
2018-12-04T02:06:35.859Z,7.30
2018-12-04T02:07:41.099Z,7.28
2018-12-04T02:08:46.249Z,7.24
2018-12-04T02:09:52.937Z,7.18
2018-12-04T02:10:58.994Z,7.15
2018-12-04T02:12:04.962Z,7.08
2018-12-04T02:13:10.785Z,7.03
2018-12-04T02:14:15.872Z,7.03
2018-12-04T02:15:21.478Z,7.00
2018-12-04T02:16:26.657Z,6.94
2018-12-04T02:17:31.318Z,6.95
2018-12-04T02:18:36.271Z,7.03
2018-12-04T02:19:41.296Z,6.98
2018-12-04T02:20:47.183Z,6.96
2018-12-04T02:21:51.806Z,6.99
2018-12-04T02:22:56.896Z,6.94
2018-12-04T02:24:01.811Z,6.84
2018-12-04T02:25:06.794Z,6.80
2018-12-04T02:26:11.753Z,6.74
2018-12-04T02:27:16.692Z,6.70
2018-12-04T02:28:23.462Z,6.67
2018-12-04T02:29:28.260Z,6.64
2018-12-04T02:30:32.842Z,6.64
2018-12-04T02:31:37.589Z,6.59
2018-12-04T02:32:42.337Z,6.51
2018-12-04T02:33:47.245Z,6.42
2018-12-04T02:34:53.054Z,6.35
2018-12-04T02:35:57.812Z,6.31
2018-12-04T02:37:03.818Z,6.34
2018-12-04T02:38:08.550Z,6.31
2018-12-04T02:39:13.427Z,6.35
2018-12-04T02:40:18.641Z,6.27
2018-12-04T02:41:23.396Z,6.27
2018-12-04T02:42:28.990Z,6.21
2018-12-04T02:43:33.608Z,6.23
2018-12-04T02:44:38.545Z,6.19
2018-12-04T02:45:44.477Z,6.13
2018-12-04T02:46:50.355Z,6.10
2018-12-04T02:47:57.709Z,6.10
2018-12-04T02:49:03.198Z,6.08
2018-12-04T02:50:09.309Z,6.06
2018-12-04T02:51:14.448Z,5.99
2018-12-04T02:52:21.070Z,5.95
2018-12-04T02:53:27.175Z,5.87
2018-12-04T02:54:33.609Z,5.80
2018-12-04T02:55:39.551Z,5.77
2018-12-04T02:56:45.452Z,5.81
2018-12-04T02:57:51.329Z,5.77
2018-12-04T02:58:59.460Z,5.80
2018-12-04T03:00:05.784Z,5.82
2018-12-04T03:01:11.020Z,5.85
2018-12-04T03:02:15.663Z,5.89
2018-12-04T03:03:20.338Z,5.87
2018-12-04T03:04:26.080Z,5.81
2018-12-04T03:05:32.075Z,5.75
2018-12-04T03:06:37.445Z,5.75
2018-12-04T03:07:42.664Z,5.77
2018-12-04T03:08:47.432Z,5.80
2018-12-04T03:09:53.530Z,5.88
2018-12-04T03:10:59.409Z,5.72
2018-12-04T03:12:05.398Z,5.82
2018-12-04T03:13:10.898Z,5.74
2018-12-04T03:14:16.706Z,5.76
2018-12-04T03:15:22.660Z,5.76
2018-12-04T03:16:28.742Z,5.79
2018-12-04T03:17:34.738Z,5.77
2018-12-04T03:18:40.995Z,5.74
2018-12-04T03:19:46.838Z,5.74
2018-12-04T03:20:52.351Z,5.75
2018-12-04T03:21:57.763Z,5.66
2018-12-04T03:23:03.002Z,5.67
2018-12-04T03:24:08.667Z,5.62
2018-12-04T03:25:15.406Z,5.59
2018-12-04T03:26:21.264Z,5.50
2018-12-04T03:27:26.985Z,5.47
2018-12-04T03:28:32.425Z,5.44
2018-12-04T03:29:38.071Z,5.47
2018-12-04T03:30:43.042Z,5.50
2018-12-04T03:31:48.608Z,5.51
2018-12-04T03:32:53.740Z,5.39
2018-12-04T03:33:58.781Z,5.42
2018-12-04T03:35:03.381Z,5.37
2018-12-04T03:36:08.256Z,5.43
2018-12-04T03:37:12.868Z,5.51
2018-12-04T03:38:18.848Z,5.44
2018-12-04T03:39:25.613Z,5.48
2018-12-04T03:40:30.396Z,5.50
2018-12-04T03:41:35.676Z,5.58
2018-12-04T03:42:40.510Z,5.51
2018-12-04T03:43:45.600Z,5.57
2018-12-04T03:44:50.345Z,5.63
2018-12-04T03:45:55.234Z,5.56
2018-12-04T03:46:59.857Z,5.49
2018-12-04T03:48:04.629Z,5.49
2018-12-04T03:49:09.352Z,5.49
2018-12-04T03:50:14.656Z,5.51
2018-12-04T03:51:19.681Z,5.54
2018-12-04T03:52:24.829Z,5.50
2018-12-04T03:53:29.828Z,5.48
2018-12-04T03:54:34.752Z,5.40
2018-12-04T03:55:39.370Z,5.31
2018-12-04T03:56:44.533Z,5.19
2018-12-04T03:57:49.143Z,5.28
2018-12-04T03:58:53.768Z,5.35
2018-12-04T03:59:58.386Z,5.23
2018-12-04T04:01:03.155Z,5.21
2018-12-04T04:02:08.301Z,5.16
2018-12-04T04:03:13.648Z,5.13
2018-12-04T04:04:18.442Z,5.12
2018-12-04T04:05:23.034Z,5.15
2018-12-04T04:06:27.795Z,5.17
2018-12-04T04:07:32.639Z,5.11
2018-12-04T04:08:37.889Z,5.14
2018-12-04T04:09:43.766Z,5.16
2018-12-04T04:10:49.237Z,5.22
2018-12-04T04:11:54.175Z,5.32
2018-12-04T04:12:59.604Z,5.26
2018-12-04T04:14:04.568Z,5.19
2018-12-04T04:16:12.090Z,5.17
2018-12-04T04:17:17.178Z,5.23
2018-12-04T04:18:22.706Z,5.24
2018-12-04T04:19:27.664Z,5.22
2018-12-04T04:20:32.969Z,5.22
2018-12-04T04:21:38.108Z,5.21
2018-12-04T04:22:43.856Z,5.15
2018-12-04T04:23:49.116Z,5.22
2018-12-04T04:24:54.742Z,5.23
2018-12-04T04:26:00.417Z,5.28
2018-12-04T04:27:06.062Z,5.26
2018-12-04T04:28:12.106Z,5.30
2018-12-04T04:29:17.485Z,5.34
2018-12-04T04:30:22.347Z,5.28
2018-12-04T04:31:27.199Z,5.26
2018-12-04T04:32:32.405Z,5.25
2018-12-04T04:33:37.710Z,5.26
2018-12-04T04:34:43.461Z,5.25
2018-12-04T04:35:48.831Z,5.34
2018-12-04T04:36:55.086Z,5.42
2018-12-04T04:37:59.669Z,5.47
2018-12-04T04:39:05.322Z,5.59
2018-12-04T04:40:10.069Z,5.65
2018-12-04T04:41:14.681Z,5.62
2018-12-04T04:42:20.258Z,5.70
2018-12-04T04:43:25.953Z,5.74
2018-12-04T04:44:30.606Z,5.87
2018-12-04T04:45:35.175Z,5.92
2018-12-04T04:46:39.787Z,5.99
2018-12-04T04:47:44.432Z,6.04
2018-12-04T04:48:49.316Z,6.21
2018-12-04T04:49:53.998Z,6.51
2018-12-04T04:50:58.592Z,6.61
2018-12-04T04:52:03.273Z,6.70
2018-12-04T04:53:07.906Z,6.89
2018-12-04T04:54:12.489Z,7.24
2018-12-04T04:55:17.413Z,7.52
2018-12-04T04:56:22.031Z,7.68
2018-12-04T04:57:26.682Z,8.08
2018-12-04T04:58:31.309Z,8.22
2018-12-04T04:59:35.964Z,8.73
2018-12-04T05:00:40.540Z,8.63
2018-12-04T05:01:45.491Z,8.90
2018-12-04T05:02:50.081Z,9.44
2018-12-04T05:03:54.738Z,9.97
2018-12-04T05:04:59.290Z,10.34
2018-12-04T05:06:03.911Z,10.96
2018-12-04T05:07:08.537Z,11.28
2018-12-04T05:08:13.442Z,12.24
2018-12-04T05:09:18.033Z,13.30
2018-12-04T05:10:22.677Z,14.31
2018-12-04T05:11:27.267Z,15.05
2018-12-04T05:12:31.819Z,15.99
2018-12-04T05:13:36.419Z,16.10
2018-12-04T05:14:42.137Z,17.91
2018-12-04T05:15:46.728Z,18.37
2018-12-04T05:16:51.364Z,19.62
2018-12-04T05:17:56.024Z,19.57
2018-12-04T05:19:00.627Z,19.75
2018-12-04T05:20:06.019Z,20.00
2018-12-04T05:21:11.038Z,19.27
2018-12-04T05:22:17.050Z,18.78
2018-12-04T05:23:22.315Z,20.28
2018-12-04T05:24:27.254Z,19.48
2018-12-04T05:25:31.807Z,20.02
2018-12-04T05:26:36.397Z,20.53
2018-12-04T05:27:41.502Z,22.57
2018-12-04T05:28:46.094Z,21.79
2018-12-04T05:29:50.706Z,24.50
2018-12-04T05:30:58.382Z,24.60
2018-12-04T05:32:03.305Z,25.30
2018-12-04T05:33:07.929Z,27.33
2018-12-04T05:34:12.946Z,26.63
2018-12-04T05:35:17.584Z,27.38
2018-12-04T05:36:22.613Z,27.89
2018-12-04T05:37:27.248Z,28.28
2018-12-04T05:38:31.853Z,29.06
2018-12-04T05:39:36.489Z,28.89
2018-12-04T05:40:42.343Z,29.28
2018-12-04T05:41:46.914Z,29.52
2018-12-04T05:42:51.654Z,31.77
2018-12-04T05:43:56.247Z,32.48
2018-12-04T05:45:00.858Z,32.72
2018-12-04T05:46:05.593Z,33.76
2018-12-04T05:47:10.552Z,32.96
2018-12-04T05:48:15.158Z,35.28
2018-12-04T05:49:19.754Z,38.42
2018-12-04T05:50:24.396Z,38.98
2018-12-04T05:51:29.082Z,39.37
2018-12-04T05:52:33.667Z,40.50
2018-12-04T05:53:41.630Z,41.46
2018-12-04T05:54:46.264Z,39.14
2018-12-04T05:55:50.850Z,42.74
2018-12-04T05:56:55.592Z,47.58
2018-12-04T05:58:01.173Z,47.94
2018-12-04T05:59:05.795Z,48.35
2018-12-04T06:00:11.092Z,48.68
2018-12-04T06:01:15.757Z,49.96
2018-12-04T06:02:20.348Z,48.51
2018-12-04T06:03:24.953Z,49.15
2018-12-04T06:04:29.574Z,48.97
2018-12-04T06:05:34.181Z,47.53
2018-12-04T06:06:39.376Z,45.37
2018-12-04T06:07:44.058Z,46.56
2018-12-04T06:08:48.658Z,47.46
2018-12-04T06:09:55.464Z,46.24
2018-12-04T06:11:00.133Z,45.54
2018-12-04T06:12:04.787Z,49.32
2018-12-04T06:13:09.961Z,48.41
2018-12-04T06:14:14.582Z,46.78
2018-12-04T06:15:51.031Z,-144.44
2018-12-04T06:17:10.201Z,-144.44
2018-12-04T06:19:41.065Z,-144.44
2018-12-04T06:20:47.116Z,-144.44
2018-12-04T06:22:04.702Z,-144.44
2018-12-04T06:23:34.042Z,-144.44
2018-12-04T06:24:38.637Z,55.03
2018-12-04T06:25:44.193Z,-144.44
2018-12-04T06:28:15.443Z,-144.44
